sensor_id;sensor_type;location;lat;lon;timestamp;P1;durP1;ratioP1;P2;durP2;ratioP2
42144;SDS011;27813;43.516;11.890;2024-01-11T00:03:43;3.15;;;2.30;;
42144;SDS011;27813;43.516;11.890;2024-01-11T00:07:48;4.03;;;2.40;;
42144;SDS011;27813;43.516;11.890;2024-01-11T00:11:54;3.55;;;2.15;;
42144;SDS011;27813;43.516;11.890;2024-01-11T00:15:59;3.65;;;2.25;;
42144;SDS011;27813;43.516;11.890;2024-01-11T00:20:07;3.90;;;2.47;;
42144;SDS011;27813;43.516;11.890;2024-01-11T00:24:14;2.90;;;1.88;;
42144;SDS011;27813;43.516;11.890;2024-01-11T00:28:18;2.90;;;1.73;;
42144;SDS011;27813;43.516;11.890;2024-01-11T00:32:23;3.38;;;2.13;;
42144;SDS011;27813;43.516;11.890;2024-01-11T00:36:28;2.38;;;1.55;;
42144;SDS011;27813;43.516;11.890;2024-01-11T00:40:33;2.70;;;1.90;;
42144;SDS011;27813;43.516;11.890;2024-01-11T00:44:37;3.72;;;1.48;;
42144;SDS011;27813;43.516;11.890;2024-01-11T00:48:42;3.17;;;1.90;;
42144;SDS011;27813;43.516;11.890;2024-01-11T00:56:52;3.10;;;2.10;;
42144;SDS011;27813;43.516;11.890;2024-01-11T01:00:56;2.47;;;1.60;;
42144;SDS011;27813;43.516;11.890;2024-01-11T01:05:02;2.45;;;1.75;;
42144;SDS011;27813;43.516;11.890;2024-01-11T01:09:07;2.17;;;1.42;;
42144;SDS011;27813;43.516;11.890;2024-01-11T01:13:12;2.97;;;1.77;;
42144;SDS011;27813;43.516;11.890;2024-01-11T01:21:22;2.63;;;1.77;;
42144;SDS011;27813;43.516;11.890;2024-01-11T01:25:27;3.42;;;2.10;;
42144;SDS011;27813;43.516;11.890;2024-01-11T01:29:31;2.20;;;1.73;;
42144;SDS011;27813;43.516;11.890;2024-01-11T01:37:41;3.10;;;2.00;;
42144;SDS011;27813;43.516;11.890;2024-01-11T01:41:46;3.40;;;1.88;;
42144;SDS011;27813;43.516;11.890;2024-01-11T01:45:50;2.83;;;1.90;;
42144;SDS011;27813;43.516;11.890;2024-01-11T01:49:55;2.75;;;1.90;;
42144;SDS011;27813;43.516;11.890;2024-01-11T01:54:01;2.63;;;1.60;;
42144;SDS011;27813;43.516;11.890;2024-01-11T01:58:07;3.38;;;2.10;;
42144;SDS011;27813;43.516;11.890;2024-01-11T02:02:12;3.53;;;2.13;;
42144;SDS011;27813;43.516;11.890;2024-01-11T02:06:17;7.45;;;3.35;;
42144;SDS011;27813;43.516;11.890;2024-01-11T02:10:26;4.93;;;2.95;;
42144;SDS011;27813;43.516;11.890;2024-01-11T02:14:31;2.20;;;1.50;;
42144;SDS011;27813;43.516;11.890;2024-01-11T02:18:39;2.83;;;2.03;;
42144;SDS011;27813;43.516;11.890;2024-01-11T02:22:46;3.58;;;2.05;;
42144;SDS011;27813;43.516;11.890;2024-01-11T02:26:58;3.08;;;1.90;;
42144;SDS011;27813;43.516;11.890;2024-01-11T02:31:08;3.50;;;2.13;;
42144;SDS011;27813;43.516;11.890;2024-01-11T02:35:18;2.28;;;1.42;;
42144;SDS011;27813;43.516;11.890;2024-01-11T02:39:23;2.92;;;1.88;;
42144;SDS011;27813;43.516;11.890;2024-01-11T02:43:30;3.90;;;2.42;;
42144;SDS011;27813;43.516;11.890;2024-01-11T02:47:35;2.58;;;1.55;;
42144;SDS011;27813;43.516;11.890;2024-01-11T02:55:45;3.13;;;1.85;;
42144;SDS011;27813;43.516;11.890;2024-01-11T02:59:50;1.65;;;1.15;;
42144;SDS011;27813;43.516;11.890;2024-01-11T03:03:56;1.60;;;1.02;;
42144;SDS011;27813;43.516;11.890;2024-01-11T03:08:00;2.33;;;1.20;;
42144;SDS011;27813;43.516;11.890;2024-01-11T03:12:04;2.07;;;1.30;;
42144;SDS011;27813;43.516;11.890;2024-01-11T03:16:10;2.08;;;1.33;;
42144;SDS011;27813;43.516;11.890;2024-01-11T03:20:14;2.47;;;1.10;;
42144;SDS011;27813;43.516;11.890;2024-01-11T03:28:22;1.52;;;1.23;;
42144;SDS011;27813;43.516;11.890;2024-01-11T03:32:26;2.63;;;1.50;;
42144;SDS011;27813;43.516;11.890;2024-01-11T03:36:31;1.45;;;1.02;;
42144;SDS011;27813;43.516;11.890;2024-01-11T03:40:34;1.85;;;1.20;;
42144;SDS011;27813;43.516;11.890;2024-01-11T03:44:38;1.65;;;1.20;;
42144;SDS011;27813;43.516;11.890;2024-01-11T03:48:43;1.20;;;0.90;;
42144;SDS011;27813;43.516;11.890;2024-01-11T03:52:47;2.40;;;1.35;;
42144;SDS011;27813;43.516;11.890;2024-01-11T03:56:51;1.60;;;0.90;;
42144;SDS011;27813;43.516;11.890;2024-01-11T04:00:55;1.60;;;1.00;;
42144;SDS011;27813;43.516;11.890;2024-01-11T04:04:59;1.80;;;1.05;;
42144;SDS011;27813;43.516;11.890;2024-01-11T04:09:03;1.88;;;1.00;;
42144;SDS011;27813;43.516;11.890;2024-01-11T04:13:07;2.05;;;1.05;;
42144;SDS011;27813;43.516;11.890;2024-01-11T04:17:11;2.93;;;1.30;;
42144;SDS011;27813;43.516;11.890;2024-01-11T04:21:24;1.70;;;1.20;;
42144;SDS011;27813;43.516;11.890;2024-01-11T04:25:32;1.52;;;1.15;;
42144;SDS011;27813;43.516;11.890;2024-01-11T04:29:36;3.03;;;1.38;;
42144;SDS011;27813;43.516;11.890;2024-01-11T04:33:40;2.00;;;1.13;;
42144;SDS011;27813;43.516;11.890;2024-01-11T04:37:47;1.45;;;1.17;;
42144;SDS011;27813;43.516;11.890;2024-01-11T04:41:51;1.13;;;1.00;;
42144;SDS011;27813;43.516;11.890;2024-01-11T04:45:55;1.63;;;1.13;;
42144;SDS011;27813;43.516;11.890;2024-01-11T04:49:58;2.25;;;1.60;;
42144;SDS011;27813;43.516;11.890;2024-01-11T04:54:03;2.33;;;1.40;;
42144;SDS011;27813;43.516;11.890;2024-01-11T04:58:07;2.20;;;1.50;;
42144;SDS011;27813;43.516;11.890;2024-01-11T05:02:10;1.52;;;1.13;;
42144;SDS011;27813;43.516;11.890;2024-01-11T05:06:15;2.72;;;1.40;;
42144;SDS011;27813;43.516;11.890;2024-01-11T05:10:22;1.35;;;1.10;;
42144;SDS011;27813;43.516;11.890;2024-01-11T05:14:26;1.25;;;0.98;;
42144;SDS011;27813;43.516;11.890;2024-01-11T05:18:30;1.63;;;1.20;;
42144;SDS011;27813;43.516;11.890;2024-01-11T05:22:37;1.70;;;1.00;;
42144;SDS011;27813;43.516;11.890;2024-01-11T05:26:41;2.03;;;1.27;;
42144;SDS011;27813;43.516;11.890;2024-01-11T05:30:45;1.53;;;1.10;;
42144;SDS011;27813;43.516;11.890;2024-01-11T05:34:48;1.00;;;0.70;;
42144;SDS011;27813;43.516;11.890;2024-01-11T05:38:52;1.20;;;0.90;;
42144;SDS011;27813;43.516;11.890;2024-01-11T05:42:56;1.23;;;0.90;;
42144;SDS011;27813;43.516;11.890;2024-01-11T05:47:00;1.73;;;0.82;;
42144;SDS011;27813;43.516;11.890;2024-01-11T05:51:04;0.85;;;0.70;;
42144;SDS011;27813;43.516;11.890;2024-01-11T05:55:07;1.30;;;0.80;;
42144;SDS011;27813;43.516;11.890;2024-01-11T05:59:11;1.58;;;0.73;;
42144;SDS011;27813;43.516;11.890;2024-01-11T06:03:15;2.58;;;0.98;;
42144;SDS011;27813;43.516;11.890;2024-01-11T06:07:20;1.38;;;0.82;;
42144;SDS011;27813;43.516;11.890;2024-01-11T06:11:23;1.52;;;1.10;;
42144;SDS011;27813;43.516;11.890;2024-01-11T06:15:27;2.13;;;1.05;;
42144;SDS011;27813;43.516;11.890;2024-01-11T06:19:31;2.45;;;1.50;;
42144;SDS011;27813;43.516;11.890;2024-01-11T06:23:35;2.57;;;1.10;;
42144;SDS011;27813;43.516;11.890;2024-01-11T06:27:41;2.73;;;1.37;;
42144;SDS011;27813;43.516;11.890;2024-01-11T06:31:47;1.42;;;1.00;;
42144;SDS011;27813;43.516;11.890;2024-01-11T06:35:51;1.98;;;1.10;;
42144;SDS011;27813;43.516;11.890;2024-01-11T06:39:55;2.08;;;1.50;;
42144;SDS011;27813;43.516;11.890;2024-01-11T06:43:59;2.00;;;1.37;;
42144;SDS011;27813;43.516;11.890;2024-01-11T06:48:06;2.67;;;1.52;;
42144;SDS011;27813;43.516;11.890;2024-01-11T06:52:10;2.17;;;1.30;;
42144;SDS011;27813;43.516;11.890;2024-01-11T06:56:17;2.10;;;1.52;;
42144;SDS011;27813;43.516;11.890;2024-01-11T07:00:24;1.73;;;1.20;;
42144;SDS011;27813;43.516;11.890;2024-01-11T07:04:28;2.17;;;1.52;;
42144;SDS011;27813;43.516;11.890;2024-01-11T07:08:36;2.47;;;1.20;;
42144;SDS011;27813;43.516;11.890;2024-01-11T07:12:39;2.88;;;1.40;;
42144;SDS011;27813;43.516;11.890;2024-01-11T07:16:46;3.30;;;1.70;;
42144;SDS011;27813;43.516;11.890;2024-01-11T07:20:50;2.25;;;1.52;;
42144;SDS011;27813;43.516;11.890;2024-01-11T07:28:58;2.25;;;1.50;;
42144;SDS011;27813;43.516;11.890;2024-01-11T07:33:03;2.63;;;1.60;;
42144;SDS011;27813;43.516;11.890;2024-01-11T07:37:07;2.28;;;1.67;;
42144;SDS011;27813;43.516;11.890;2024-01-11T07:41:13;1.52;;;1.05;;
42144;SDS011;27813;43.516;11.890;2024-01-11T07:45:17;2.33;;;1.65;;
42144;SDS011;27813;43.516;11.890;2024-01-11T07:49:21;3.05;;;1.60;;
42144;SDS011;27813;43.516;11.890;2024-01-11T07:53:25;3.70;;;1.60;;
42144;SDS011;27813;43.516;11.890;2024-01-11T07:57:29;2.53;;;1.70;;
42144;SDS011;27813;43.516;11.890;2024-01-11T08:01:33;3.10;;;1.65;;
42144;SDS011;27813;43.516;11.890;2024-01-11T08:05:38;4.07;;;2.13;;
42144;SDS011;27813;43.516;11.890;2024-01-11T08:09:42;4.97;;;2.17;;
42144;SDS011;27813;43.516;11.890;2024-01-11T08:13:49;3.58;;;2.45;;
42144;SDS011;27813;43.516;11.890;2024-01-11T08:17:53;5.18;;;2.20;;
42144;SDS011;27813;43.516;11.890;2024-01-11T08:21:57;3.17;;;2.00;;
42144;SDS011;27813;43.516;11.890;2024-01-11T08:26:01;3.00;;;2.35;;
42144;SDS011;27813;43.516;11.890;2024-01-11T08:30:05;3.78;;;2.20;;
42144;SDS011;27813;43.516;11.890;2024-01-11T08:34:11;3.35;;;1.95;;
42144;SDS011;27813;43.516;11.890;2024-01-11T08:38:16;5.82;;;4.03;;
42144;SDS011;27813;43.516;11.890;2024-01-11T08:42:20;5.93;;;3.25;;
42144;SDS011;27813;43.516;11.890;2024-01-11T08:46:25;8.85;;;3.90;;
42144;SDS011;27813;43.516;11.890;2024-01-11T08:50:29;7.95;;;2.90;;
42144;SDS011;27813;43.516;11.890;2024-01-11T08:54:33;6.93;;;3.33;;
42144;SDS011;27813;43.516;11.890;2024-01-11T08:58:37;5.05;;;2.70;;
42144;SDS011;27813;43.516;11.890;2024-01-11T09:02:46;5.85;;;3.78;;
42144;SDS011;27813;43.516;11.890;2024-01-11T09:06:51;5.38;;;3.55;;
42144;SDS011;27813;43.516;11.890;2024-01-11T09:10:55;5.07;;;3.17;;
42144;SDS011;27813;43.516;11.890;2024-01-11T09:15:02;5.28;;;3.65;;
42144;SDS011;27813;43.516;11.890;2024-01-11T09:19:07;5.57;;;3.30;;
42144;SDS011;27813;43.516;11.890;2024-01-11T09:23:11;5.97;;;3.50;;
42144;SDS011;27813;43.516;11.890;2024-01-11T09:27:15;7.97;;;4.40;;
42144;SDS011;27813;43.516;11.890;2024-01-11T09:31:19;31.67;;;11.90;;
42144;SDS011;27813;43.516;11.890;2024-01-11T09:35:23;12.30;;;5.97;;
42144;SDS011;27813;43.516;11.890;2024-01-11T09:39:27;6.72;;;3.33;;
42144;SDS011;27813;43.516;11.890;2024-01-11T09:43:31;6.80;;;3.97;;
42144;SDS011;27813;43.516;11.890;2024-01-11T09:47:38;6.10;;;3.10;;
42144;SDS011;27813;43.516;11.890;2024-01-11T09:51:43;8.63;;;3.50;;
42144;SDS011;27813;43.516;11.890;2024-01-11T09:55:49;5.10;;;3.10;;
42144;SDS011;27813;43.516;11.890;2024-01-11T09:59:54;7.43;;;3.22;;
42144;SDS011;27813;43.516;11.890;2024-01-11T10:03:59;4.70;;;2.80;;
42144;SDS011;27813;43.516;11.890;2024-01-11T10:08:07;5.60;;;3.00;;
42144;SDS011;27813;43.516;11.890;2024-01-11T10:12:11;3.58;;;2.35;;
42144;SDS011;27813;43.516;11.890;2024-01-11T10:16:15;5.68;;;2.50;;
42144;SDS011;27813;43.516;11.890;2024-01-11T10:20:19;4.18;;;2.60;;
42144;SDS011;27813;43.516;11.890;2024-01-11T10:24:28;3.88;;;2.50;;
42144;SDS011;27813;43.516;11.890;2024-01-11T10:28:32;4.85;;;2.90;;
42144;SDS011;27813;43.516;11.890;2024-01-11T10:32:40;3.35;;;2.03;;
42144;SDS011;27813;43.516;11.890;2024-01-11T10:36:45;3.38;;;2.20;;
42144;SDS011;27813;43.516;11.890;2024-01-11T10:40:49;3.30;;;2.10;;
42144;SDS011;27813;43.516;11.890;2024-01-11T10:48:58;3.95;;;2.60;;
42144;SDS011;27813;43.516;11.890;2024-01-11T10:57:45;3.90;;;2.33;;
42144;SDS011;27813;43.516;11.890;2024-01-11T11:01:55;5.20;;;2.50;;
42144;SDS011;27813;43.516;11.890;2024-01-11T11:06:01;4.63;;;2.65;;
42144;SDS011;27813;43.516;11.890;2024-01-11T11:10:07;3.20;;;2.17;;
42144;SDS011;27813;43.516;11.890;2024-01-11T11:14:13;4.07;;;2.65;;
42144;SDS011;27813;43.516;11.890;2024-01-11T11:18:19;4.95;;;2.35;;
42144;SDS011;27813;43.516;11.890;2024-01-11T11:22:26;4.10;;;2.38;;
42144;SDS011;27813;43.516;11.890;2024-01-11T11:26:31;3.70;;;2.53;;
42144;SDS011;27813;43.516;11.890;2024-01-11T11:30:39;4.20;;;2.45;;
42144;SDS011;27813;43.516;11.890;2024-01-11T11:34:44;4.05;;;2.40;;
42144;SDS011;27813;43.516;11.890;2024-01-11T11:38:49;4.00;;;2.42;;
42144;SDS011;27813;43.516;11.890;2024-01-11T11:42:53;3.40;;;2.45;;
42144;SDS011;27813;43.516;11.890;2024-01-11T11:51:36;3.97;;;2.50;;
42144;SDS011;27813;43.516;11.890;2024-01-11T11:55:43;4.57;;;2.75;;
42144;SDS011;27813;43.516;11.890;2024-01-11T11:59:48;3.45;;;2.58;;
42144;SDS011;27813;43.516;11.890;2024-01-11T12:03:52;5.55;;;2.88;;
42144;SDS011;27813;43.516;11.890;2024-01-11T12:07:57;3.72;;;2.53;;
42144;SDS011;27813;43.516;11.890;2024-01-11T12:12:00;5.57;;;2.93;;
42144;SDS011;27813;43.516;11.890;2024-01-11T12:16:17;5.03;;;2.55;;
42144;SDS011;27813;43.516;11.890;2024-01-11T12:20:21;5.30;;;2.22;;
42144;SDS011;27813;43.516;11.890;2024-01-11T12:24:25;4.47;;;2.53;;
42144;SDS011;27813;43.516;11.890;2024-01-11T12:28:30;4.43;;;2.70;;
42144;SDS011;27813;43.516;11.890;2024-01-11T12:32:36;4.43;;;2.58;;
42144;SDS011;27813;43.516;11.890;2024-01-11T12:36:40;5.50;;;3.60;;
42144;SDS011;27813;43.516;11.890;2024-01-11T12:40:45;5.97;;;2.38;;
42144;SDS011;27813;43.516;11.890;2024-01-11T12:44:51;3.90;;;2.38;;
42144;SDS011;27813;43.516;11.890;2024-01-11T12:48:59;3.72;;;2.40;;
42144;SDS011;27813;43.516;11.890;2024-01-11T12:53:07;3.72;;;2.42;;
42144;SDS011;27813;43.516;11.890;2024-01-11T12:57:17;3.33;;;2.15;;
42144;SDS011;27813;43.516;11.890;2024-01-11T13:01:25;3.97;;;2.45;;
42144;SDS011;27813;43.516;11.890;2024-01-11T13:05:29;2.50;;;1.90;;
42144;SDS011;27813;43.516;11.890;2024-01-11T13:09:40;3.20;;;2.00;;
42144;SDS011;27813;43.516;11.890;2024-01-11T13:13:44;3.53;;;2.22;;
42144;SDS011;27813;43.516;11.890;2024-01-11T13:17:51;3.70;;;2.35;;
42144;SDS011;27813;43.516;11.890;2024-01-11T13:22:01;4.63;;;2.10;;
42144;SDS011;27813;43.516;11.890;2024-01-11T13:26:10;3.85;;;2.60;;
42144;SDS011;27813;43.516;11.890;2024-01-11T13:34:18;3.35;;;1.88;;
42144;SDS011;27813;43.516;11.890;2024-01-11T13:38:22;4.65;;;2.13;;
42144;SDS011;27813;43.516;11.890;2024-01-11T13:42:27;3.72;;;2.17;;
42144;SDS011;27813;43.516;11.890;2024-01-11T13:46:35;4.00;;;2.35;;
42144;SDS011;27813;43.516;11.890;2024-01-11T13:50:39;2.90;;;1.92;;
42144;SDS011;27813;43.516;11.890;2024-01-11T13:54:43;3.35;;;2.30;;
42144;SDS011;27813;43.516;11.890;2024-01-11T13:58:49;3.97;;;2.22;;
42144;SDS011;27813;43.516;11.890;2024-01-11T14:02:54;5.20;;;3.20;;
42144;SDS011;27813;43.516;11.890;2024-01-11T14:06:58;4.00;;;3.05;;
42144;SDS011;27813;43.516;11.890;2024-01-11T14:11:02;7.35;;;2.58;;
42144;SDS011;27813;43.516;11.890;2024-01-11T14:15:07;4.22;;;2.63;;
42144;SDS011;27813;43.516;11.890;2024-01-11T14:19:18;4.93;;;2.70;;
42144;SDS011;27813;43.516;11.890;2024-01-11T14:23:22;4.63;;;2.70;;
42144;SDS011;27813;43.516;11.890;2024-01-11T14:27:26;3.90;;;2.30;;
42144;SDS011;27813;43.516;11.890;2024-01-11T14:31:35;4.30;;;2.35;;
42144;SDS011;27813;43.516;11.890;2024-01-11T14:35:42;3.60;;;2.60;;
42144;SDS011;27813;43.516;11.890;2024-01-11T14:39:47;4.53;;;2.55;;
42144;SDS011;27813;43.516;11.890;2024-01-11T14:43:50;5.82;;;2.97;;
42144;SDS011;27813;43.516;11.890;2024-01-11T14:47:57;5.18;;;3.00;;
42144;SDS011;27813;43.516;11.890;2024-01-11T14:52:04;5.85;;;3.22;;
42144;SDS011;27813;43.516;11.890;2024-01-11T14:56:09;3.92;;;2.97;;
42144;SDS011;27813;43.516;11.890;2024-01-11T15:00:15;4.07;;;2.78;;
42144;SDS011;27813;43.516;11.890;2024-01-11T15:04:19;5.10;;;2.90;;
42144;SDS011;27813;43.516;11.890;2024-01-11T15:08:25;8.10;;;4.30;;
42144;SDS011;27813;43.516;11.890;2024-01-11T15:12:30;5.20;;;3.60;;
42144;SDS011;27813;43.516;11.890;2024-01-11T15:20:37;5.45;;;2.83;;
42144;SDS011;27813;43.516;11.890;2024-01-11T15:24:44;4.22;;;2.72;;
42144;SDS011;27813;43.516;11.890;2024-01-11T15:28:56;6.25;;;2.72;;
42144;SDS011;27813;43.516;11.890;2024-01-11T15:33:00;13.43;;;7.17;;
42144;SDS011;27813;43.516;11.890;2024-01-11T15:37:04;5.32;;;3.25;;
42144;SDS011;27813;43.516;11.890;2024-01-11T15:41:10;4.55;;;3.03;;
42144;SDS011;27813;43.516;11.890;2024-01-11T15:45:13;5.40;;;3.07;;
42144;SDS011;27813;43.516;11.890;2024-01-11T15:49:17;4.28;;;2.67;;
42144;SDS011;27813;43.516;11.890;2024-01-11T15:53:21;7.53;;;4.78;;
42144;SDS011;27813;43.516;11.890;2024-01-11T15:57:25;6.25;;;3.55;;
42144;SDS011;27813;43.516;11.890;2024-01-11T16:01:29;5.03;;;3.03;;
42144;SDS011;27813;43.516;11.890;2024-01-11T16:05:33;5.57;;;3.20;;
42144;SDS011;27813;43.516;11.890;2024-01-11T16:09:42;8.68;;;5.10;;
42144;SDS011;27813;43.516;11.890;2024-01-11T16:13:51;4.15;;;2.97;;
42144;SDS011;27813;43.516;11.890;2024-01-11T16:17:55;4.45;;;2.80;;
42144;SDS011;27813;43.516;11.890;2024-01-11T16:21:59;3.93;;;2.83;;
42144;SDS011;27813;43.516;11.890;2024-01-11T16:26:03;6.97;;;3.92;;
42144;SDS011;27813;43.516;11.890;2024-01-11T16:30:10;4.80;;;3.05;;
42144;SDS011;27813;43.516;11.890;2024-01-11T16:34:14;4.13;;;2.42;;
42144;SDS011;27813;43.516;11.890;2024-01-11T16:38:18;5.00;;;3.00;;
42144;SDS011;27813;43.516;11.890;2024-01-11T16:42:22;5.90;;;3.20;;
42144;SDS011;27813;43.516;11.890;2024-01-11T16:46:27;4.35;;;3.10;;
42144;SDS011;27813;43.516;11.890;2024-01-11T16:50:31;6.40;;;3.83;;
42144;SDS011;27813;43.516;11.890;2024-01-11T16:54:35;6.80;;;4.63;;
42144;SDS011;27813;43.516;11.890;2024-01-11T16:58:39;11.03;;;6.43;;
42144;SDS011;27813;43.516;11.890;2024-01-11T17:02:44;8.57;;;6.00;;
42144;SDS011;27813;43.516;11.890;2024-01-11T17:06:49;9.60;;;5.75;;
42144;SDS011;27813;43.516;11.890;2024-01-11T17:10:52;25.58;;;12.32;;
42144;SDS011;27813;43.516;11.890;2024-01-11T17:14:56;11.68;;;6.15;;
42144;SDS011;27813;43.516;11.890;2024-01-11T17:19:12;24.27;;;11.70;;
42144;SDS011;27813;43.516;11.890;2024-01-11T17:23:33;8.55;;;5.70;;
42144;SDS011;27813;43.516;11.890;2024-01-11T17:27:37;7.93;;;5.47;;
42144;SDS011;27813;43.516;11.890;2024-01-11T17:31:41;18.73;;;8.70;;
42144;SDS011;27813;43.516;11.890;2024-01-11T17:35:48;17.10;;;9.15;;
42144;SDS011;27813;43.516;11.890;2024-01-11T17:39:52;18.40;;;10.30;;
42144;SDS011;27813;43.516;11.890;2024-01-11T17:43:57;13.18;;;8.25;;
42144;SDS011;27813;43.516;11.890;2024-01-11T17:48:00;13.60;;;6.75;;
42144;SDS011;27813;43.516;11.890;2024-01-11T17:52:05;13.70;;;8.45;;
42144;SDS011;27813;43.516;11.890;2024-01-11T17:56:12;9.63;;;5.13;;
42144;SDS011;27813;43.516;11.890;2024-01-11T18:00:19;10.07;;;6.05;;
42144;SDS011;27813;43.516;11.890;2024-01-11T18:04:23;7.90;;;5.25;;
42144;SDS011;27813;43.516;11.890;2024-01-11T18:08:28;10.65;;;6.72;;
42144;SDS011;27813;43.516;11.890;2024-01-11T18:12:32;10.43;;;6.30;;
42144;SDS011;27813;43.516;11.890;2024-01-11T18:16:36;6.57;;;5.13;;
42144;SDS011;27813;43.516;11.890;2024-01-11T18:20:39;10.15;;;4.78;;
42144;SDS011;27813;43.516;11.890;2024-01-11T18:24:46;6.97;;;4.97;;
42144;SDS011;27813;43.516;11.890;2024-01-11T18:28:49;7.15;;;3.70;;
42144;SDS011;27813;43.516;11.890;2024-01-11T18:32:53;8.40;;;4.90;;
42144;SDS011;27813;43.516;11.890;2024-01-11T18:36:58;7.60;;;4.60;;
42144;SDS011;27813;43.516;11.890;2024-01-11T18:41:03;10.20;;;5.35;;
42144;SDS011;27813;43.516;11.890;2024-01-11T18:45:09;10.43;;;5.63;;
42144;SDS011;27813;43.516;11.890;2024-01-11T18:53:19;13.23;;;6.15;;
42144;SDS011;27813;43.516;11.890;2024-01-11T18:57:24;12.82;;;6.35;;
42144;SDS011;27813;43.516;11.890;2024-01-11T19:01:28;13.80;;;6.63;;
42144;SDS011;27813;43.516;11.890;2024-01-11T19:05:33;20.77;;;12.80;;
42144;SDS011;27813;43.516;11.890;2024-01-11T19:09:41;15.30;;;8.60;;
42144;SDS011;27813;43.516;11.890;2024-01-11T19:13:45;16.67;;;9.55;;
42144;SDS011;27813;43.516;11.890;2024-01-11T19:17:49;24.58;;;12.13;;
42144;SDS011;27813;43.516;11.890;2024-01-11T19:21:55;16.73;;;10.35;;
42144;SDS011;27813;43.516;11.890;2024-01-11T19:25:59;24.38;;;14.48;;
42144;SDS011;27813;43.516;11.890;2024-01-11T19:30:03;12.82;;;7.55;;
42144;SDS011;27813;43.516;11.890;2024-01-11T19:34:11;20.98;;;11.20;;
42144;SDS011;27813;43.516;11.890;2024-01-11T19:42:20;11.60;;;6.47;;
42144;SDS011;27813;43.516;11.890;2024-01-11T19:46:25;46.17;;;24.08;;
42144;SDS011;27813;43.516;11.890;2024-01-11T19:50:33;8.48;;;6.40;;
42144;SDS011;27813;43.516;11.890;2024-01-11T19:54:37;13.77;;;7.93;;
42144;SDS011;27813;43.516;11.890;2024-01-11T19:58:41;8.57;;;5.20;;
42144;SDS011;27813;43.516;11.890;2024-01-11T20:02:47;9.32;;;6.13;;
42144;SDS011;27813;43.516;11.890;2024-01-11T20:06:51;12.97;;;7.30;;
42144;SDS011;27813;43.516;11.890;2024-01-11T20:10:56;8.95;;;5.07;;
42144;SDS011;27813;43.516;11.890;2024-01-11T20:15:03;6.93;;;3.95;;
42144;SDS011;27813;43.516;11.890;2024-01-11T20:19:12;13.63;;;6.88;;
42144;SDS011;27813;43.516;11.890;2024-01-11T20:23:17;10.93;;;6.47;;
42144;SDS011;27813;43.516;11.890;2024-01-11T20:27:24;15.88;;;7.57;;
42144;SDS011;27813;43.516;11.890;2024-01-11T20:31:29;13.80;;;8.23;;
42144;SDS011;27813;43.516;11.890;2024-01-11T20:35:34;10.15;;;6.10;;
42144;SDS011;27813;43.516;11.890;2024-01-11T20:39:39;7.20;;;4.27;;
42144;SDS011;27813;43.516;11.890;2024-01-11T20:43:44;7.55;;;4.20;;
42144;SDS011;27813;43.516;11.890;2024-01-11T20:47:48;11.20;;;5.78;;
42144;SDS011;27813;43.516;11.890;2024-01-11T20:51:53;44.25;;;16.30;;
42144;SDS011;27813;43.516;11.890;2024-01-11T20:56:02;16.27;;;8.80;;
42144;SDS011;27813;43.516;11.890;2024-01-11T21:00:08;21.95;;;10.85;;
42144;SDS011;27813;43.516;11.890;2024-01-11T21:04:12;13.18;;;7.95;;
42144;SDS011;27813;43.516;11.890;2024-01-11T21:08:17;13.13;;;9.97;;
42144;SDS011;27813;43.516;11.890;2024-01-11T21:12:24;14.50;;;7.82;;
42144;SDS011;27813;43.516;11.890;2024-01-11T21:16:28;13.95;;;8.30;;
42144;SDS011;27813;43.516;11.890;2024-01-11T21:20:33;12.75;;;7.60;;
42144;SDS011;27813;43.516;11.890;2024-01-11T21:24:38;13.98;;;8.38;;
42144;SDS011;27813;43.516;11.890;2024-01-11T21:28:42;13.80;;;7.90;;
42144;SDS011;27813;43.516;11.890;2024-01-11T21:32:47;16.63;;;7.78;;
42144;SDS011;27813;43.516;11.890;2024-01-11T21:36:52;11.77;;;6.60;;
42144;SDS011;27813;43.516;11.890;2024-01-11T21:41:01;11.50;;;6.68;;
42144;SDS011;27813;43.516;11.890;2024-01-11T21:45:05;13.85;;;6.88;;
42144;SDS011;27813;43.516;11.890;2024-01-11T21:49:09;14.95;;;7.45;;
42144;SDS011;27813;43.516;11.890;2024-01-11T21:53:15;13.50;;;6.93;;
42144;SDS011;27813;43.516;11.890;2024-01-11T21:57:19;40.30;;;15.33;;
42144;SDS011;27813;43.516;11.890;2024-01-11T22:01:23;16.63;;;8.77;;
42144;SDS011;27813;43.516;11.890;2024-01-11T22:05:27;27.20;;;10.48;;
42144;SDS011;27813;43.516;11.890;2024-01-11T22:09:32;213.00;;;68.13;;
42144;SDS011;27813;43.516;11.890;2024-01-11T22:13:37;94.10;;;43.13;;
42144;SDS011;27813;43.516;11.890;2024-01-11T22:17:41;30.60;;;15.48;;
42144;SDS011;27813;43.516;11.890;2024-01-11T22:21:46;24.70;;;14.23;;
42144;SDS011;27813;43.516;11.890;2024-01-11T22:25:51;16.93;;;8.93;;
42144;SDS011;27813;43.516;11.890;2024-01-11T22:29:55;12.70;;;6.30;;
42144;SDS011;27813;43.516;11.890;2024-01-11T22:34:00;11.73;;;6.15;;
42144;SDS011;27813;43.516;11.890;2024-01-11T22:38:05;11.73;;;7.13;;
42144;SDS011;27813;43.516;11.890;2024-01-11T22:42:09;11.37;;;6.17;;
42144;SDS011;27813;43.516;11.890;2024-01-11T22:46:16;7.68;;;4.57;;
42144;SDS011;27813;43.516;11.890;2024-01-11T22:50:20;10.65;;;5.20;;
42144;SDS011;27813;43.516;11.890;2024-01-11T22:54:24;7.10;;;4.38;;
42144;SDS011;27813;43.516;11.890;2024-01-11T22:58:29;10.00;;;6.35;;
42144;SDS011;27813;43.516;11.890;2024-01-11T23:02:33;6.30;;;4.38;;
42144;SDS011;27813;43.516;11.890;2024-01-11T23:06:37;8.65;;;4.28;;
42144;SDS011;27813;43.516;11.890;2024-01-11T23:10:42;7.30;;;3.83;;
42144;SDS011;27813;43.516;11.890;2024-01-11T23:14:46;10.27;;;4.20;;
42144;SDS011;27813;43.516;11.890;2024-01-11T23:18:50;9.67;;;4.33;;
42144;SDS011;27813;43.516;11.890;2024-01-11T23:22:54;7.93;;;4.18;;
42144;SDS011;27813;43.516;11.890;2024-01-11T23:27:00;6.15;;;3.75;;
42144;SDS011;27813;43.516;11.890;2024-01-11T23:31:06;7.07;;;3.45;;
42144;SDS011;27813;43.516;11.890;2024-01-11T23:35:11;6.30;;;4.18;;
42144;SDS011;27813;43.516;11.890;2024-01-11T23:39:15;6.40;;;3.53;;
42144;SDS011;27813;43.516;11.890;2024-01-11T23:43:20;5.68;;;3.33;;
42144;SDS011;27813;43.516;11.890;2024-01-11T23:47:23;6.07;;;3.22;;
42144;SDS011;27813;43.516;11.890;2024-01-11T23:51:27;7.53;;;3.80;;
42144;SDS011;27813;43.516;11.890;2024-01-11T23:55:32;6.28;;;4.03;;
42144;SDS011;27813;43.516;11.890;2024-01-11T23:59:36;5.32;;;3.00;;
